Flight Track Log - Related Links

Times and Time Zones

All times are in EDT time to prevent confusion due to time zone crossing. See the CTL309 flight status page for this flight to view local times or setup timezone preferences in your user account.

Time Position Orientation Groundspeed Altitude Reporting Facility
EDT Latitude Longitude Course Direction KTS MPH feet Rate Location/Type
Thu 03:45:12 AM 40.0694 -83.1286 239° Southwest 136 157 2,000  Level Indianapolis Center
Thu 03:46:06 AM 40.0508 -83.1692 239° Southwest 150 173 2,700 678 Climbing Indianapolis Center
Thu 03:47:07 AM 40.0272 -83.2172 237° Southwest 154 177 3,300 595 Climbing Indianapolis Center
Thu 03:48:07 AM 40.0036 -83.2653 237° Southwest 159 183 3,900 248 Climbing Indianapolis Center
Thu 03:49:08 AM 39.9778 -83.3158 236° Southwest 172 198 3,800  Descending Indianapolis Center
Thu 03:50:08 AM 39.9539 -83.3664 238° Southwest 166 191 3,900 50 Climbing Indianapolis Center
Thu 03:51:09 AM 39.9278 -83.4167 236° Southwest 165 190 3,900  Level Indianapolis Center
Thu 03:52:10 AM 39.9019 -83.4669 236° Southwest 165 190 3,900  Level Indianapolis Center
Thu 03:53:10 AM 39.8775 -83.5203 239° Southwest 167 192 3,900  Level Indianapolis Center
Thu 03:54:11 AM 39.8578 -83.5714 243° Southwest 159 183 3,900 50 Level Indianapolis Center
Thu 03:55:11 AM 39.8425 -83.6164 246° West 160 184 4,000 50 Climbing Indianapolis Center
Thu 03:56:12 AM 39.8158 -83.6733 239° Southwest 154 177 4,000  Level Indianapolis Center
Thu 03:57:12 AM 39.7956 -83.7128 236° Southwest 157 181 4,000  Level Indianapolis Center
Thu 03:58:12 AM 39.7692 -83.7669 238° Southwest 157 181 4,000  Level Indianapolis Center
Thu 03:59:12 AM 39.7500 -83.8086 239° Southwest 157 181 4,000 -49 Level Indianapolis Center
Thu 04:00:15 AM 39.7164 -83.8633 231° Southwest 162 186 3,900  Descending Indianapolis Center
Thu 04:01:15 AM 39.6928 -83.9111 237° Southwest 159 183 4,000 50 Climbing Indianapolis Center
Thu 04:02:16 AM 39.6664 -83.9608 235° Southwest 163 188 4,000  Level Indianapolis Center
Thu 04:03:16 AM 39.6425 -84.0083 237° Southwest 162 186 4,000  Level Indianapolis Center
Thu 04:04:17 AM 39.6158 -84.0608 237° Southwest 161 185 4,000 -128 Level Indianapolis Center
Thu 04:06:23 AM 39.5667 -84.1500 234° Southwest 167 192 3,600 -190 Descending Cincinnati TRACON
Thu 04:08:00 AM 39.5215 -84.2178 229° Southwest  Level FlightAware Approximate
Thu 04:15:00 AM 39.3500 -84.5167 229° Southwest  Level FlightAware Approximate
Thu 04:16:00 AM 39.3638 -84.5219 229° Southwest  Level Estimated
Thu 04:17:00 AM 39.3638 -84.5219 229° Southwest  Level Estimated

Login

Don't have an account? Register now (free) for customized features, flight alerts, and more!